createdAt,value
2023-02-04T00:00:31.172Z,87.32
2023-02-04T00:03:19.688Z,87.67
2023-02-04T00:05:47.926Z,87.50
2023-02-04T00:08:16.078Z,87.20
2023-02-04T00:10:44.123Z,87.04
2023-02-04T00:13:12.110Z,86.92
2023-02-04T00:15:40.496Z,86.98
2023-02-04T00:18:09.592Z,87.05
2023-02-04T00:20:37.910Z,86.95
2023-02-04T00:23:06.337Z,87.01
2023-02-04T00:25:34.364Z,86.85
2023-02-04T00:28:02.839Z,86.58
2023-02-04T00:30:32.983Z,86.43
2023-02-04T00:33:01.545Z,86.58
2023-02-04T00:35:30.023Z,86.49
2023-02-04T00:37:58.160Z,86.72
2023-02-04T00:40:27.112Z,86.53
2023-02-04T00:42:55.451Z,86.65
2023-02-04T00:45:23.707Z,86.31
2023-02-04T00:47:52.204Z,86.42
2023-02-04T00:50:20.551Z,86.26
2023-02-04T00:52:48.647Z,86.15
2023-02-04T00:55:18.360Z,86.38
2023-02-04T00:57:49.368Z,86.22
2023-02-04T01:00:18.268Z,86.34
2023-02-04T01:02:46.528Z,86.53
2023-02-04T01:05:15.330Z,86.50
2023-02-04T01:07:43.528Z,86.50
2023-02-04T01:10:12.194Z,86.30
2023-02-04T01:12:40.495Z,86.31
2023-02-04T01:15:09.536Z,86.18
2023-02-04T01:17:38.146Z,86.20
2023-02-04T01:20:06.795Z,86.36
2023-02-04T01:22:35.190Z,86.61
2023-02-04T01:25:03.228Z,86.42
2023-02-04T01:27:45.002Z,86.84
2023-02-04T01:30:15.156Z,87.02
2023-02-04T01:32:43.361Z,86.93
2023-02-04T01:35:11.848Z,87.00
2023-02-04T01:37:40.037Z,87.07
2023-02-04T01:40:09.539Z,87.45
2023-02-04T01:42:39.032Z,87.17
2023-02-04T01:45:08.266Z,87.13
2023-02-04T01:47:37.650Z,87.37
2023-02-04T01:50:10.569Z,87.36
2023-02-04T01:52:40.023Z,87.11
2023-02-04T01:55:30.543Z,87.13
2023-02-04T01:57:59.398Z,87.00
2023-02-04T02:00:32.295Z,86.94
2023-02-04T02:03:01.078Z,86.62
2023-02-04T02:05:36.337Z,86.39
2023-02-04T02:08:06.228Z,86.45
2023-02-04T02:10:37.090Z,86.52
2023-02-04T02:13:06.891Z,86.19
2023-02-04T02:15:40.063Z,86.10
2023-02-04T02:18:09.822Z,86.16
2023-02-04T02:20:38.762Z,85.99
2023-02-04T02:23:33.072Z,85.95
2023-02-04T02:26:01.324Z,86.12
2023-02-04T02:28:29.601Z,85.87
2023-02-04T02:30:57.796Z,86.11
2023-02-04T02:33:26.490Z,86.47
2023-02-04T02:35:54.570Z,86.38
2023-02-04T02:38:22.631Z,86.33
2023-02-04T02:40:52.742Z,86.47
2023-02-04T02:43:25.606Z,86.61
2023-02-04T02:45:57.223Z,87.19
2023-02-04T02:48:25.474Z,87.09
2023-02-04T02:50:53.805Z,87.80
2023-02-04T02:53:22.494Z,87.80
2023-02-04T02:55:51.722Z,87.62
2023-02-04T02:58:34.630Z,87.73
2023-02-04T03:01:07.543Z,87.69
2023-02-04T03:03:47.873Z,88.19
2023-02-04T03:06:26.346Z,88.01
2023-02-04T03:08:56.998Z,88.17
2023-02-04T03:11:28.144Z,88.03
2023-02-04T03:13:58.050Z,87.82
2023-02-04T03:16:26.428Z,87.74
2023-02-04T03:18:55.730Z,87.82
2023-02-04T03:21:23.726Z,87.64
2023-02-04T03:23:51.904Z,87.48
2023-02-04T03:26:20.277Z,87.51
2023-02-04T03:28:48.324Z,87.79
2023-02-04T03:31:16.977Z,87.80
2023-02-04T03:33:45.421Z,87.89
2023-02-04T03:36:13.690Z,87.86
2023-02-04T03:38:41.942Z,87.91
2023-02-04T03:41:10.198Z,87.92
2023-02-04T03:49:42.870Z,87.94
2023-02-04T03:52:10.956Z,87.93
2023-02-04T03:54:39.007Z,88.05
2023-02-04T03:57:07.061Z,87.88
2023-02-04T03:59:35.277Z,88.14
2023-02-04T04:02:04.320Z,87.90
2023-02-04T04:04:32.490Z,87.89
2023-02-04T04:07:00.588Z,87.90
2023-02-04T04:09:29.782Z,88.03
2023-02-04T04:11:57.925Z,87.78
2023-02-04T04:14:26.208Z,88.12
2023-02-04T04:16:54.178Z,88.16
2023-02-04T04:19:22.233Z,88.18
2023-02-04T04:21:50.611Z,88.39
2023-02-04T04:24:19.004Z,88.44
2023-02-04T04:26:47.039Z,88.34
2023-02-04T04:29:15.143Z,88.51
2023-02-04T04:31:45.179Z,88.55
2023-02-04T04:34:13.849Z,88.27
2023-02-04T04:36:41.831Z,88.48
2023-02-04T04:39:10.101Z,88.02
2023-02-04T04:41:38.339Z,87.95
2023-02-04T04:44:06.962Z,88.31
2023-02-04T04:46:35.140Z,88.30
2023-02-04T04:49:03.549Z,87.95
2023-02-04T04:51:32.596Z,87.59
2023-02-04T04:54:00.872Z,87.78
2023-02-04T04:56:28.902Z,87.65
2023-02-04T04:58:56.906Z,87.69
2023-02-04T05:01:25.088Z,87.75
2023-02-04T05:03:53.381Z,87.78
2023-02-04T05:06:25.629Z,87.82
2023-02-04T05:08:54.502Z,87.87
2023-02-04T05:11:22.895Z,88.04
2023-02-04T05:13:50.982Z,88.06
2023-02-04T05:16:19.203Z,88.02
2023-02-04T05:18:47.368Z,87.98
2023-02-04T05:21:15.785Z,87.90
2023-02-04T05:23:44.082Z,87.87
2023-02-04T05:26:15.361Z,88.13
2023-02-04T05:28:50.458Z,88.20
2023-02-04T05:31:18.623Z,88.26
2023-02-04T05:33:46.715Z,88.36
2023-02-04T05:36:14.871Z,88.33
2023-02-04T05:38:42.944Z,88.19
2023-02-04T05:41:11.230Z,88.19
2023-02-04T05:43:39.908Z,88.28
2023-02-04T05:46:07.975Z,88.31
2023-02-04T05:48:36.458Z,88.33
2023-02-04T05:51:04.680Z,88.39
2023-02-04T05:53:32.729Z,88.41
2023-02-04T05:56:00.880Z,88.14
2023-02-04T05:58:33.744Z,88.07
2023-02-04T06:01:03.124Z,88.11
2023-02-04T06:03:32.973Z,88.27
2023-02-04T06:06:01.044Z,88.21
2023-02-04T06:08:29.093Z,88.33
2023-02-04T06:10:57.280Z,88.26
2023-02-04T06:13:25.352Z,88.27
2023-02-04T06:15:53.344Z,88.22
2023-02-04T06:18:21.602Z,88.50
2023-02-04T06:20:49.762Z,88.29
2023-02-04T06:23:17.804Z,87.73
2023-02-04T06:25:47.754Z,87.85
2023-02-04T06:28:16.280Z,87.18
2023-02-04T06:30:44.823Z,87.32
2023-02-04T06:33:12.971Z,87.10
2023-02-04T06:35:41.034Z,87.31
2023-02-04T06:38:09.139Z,87.52
2023-02-04T06:40:37.323Z,86.91
2023-02-04T06:43:05.448Z,87.17
2023-02-04T06:45:33.556Z,86.62
2023-02-04T06:48:01.726Z,86.24
2023-02-04T06:50:30.144Z,86.49
2023-02-04T06:52:58.413Z,86.37
2023-02-04T06:55:26.417Z,86.62
2023-02-04T06:57:54.522Z,86.83
2023-02-04T07:00:22.600Z,86.94
2023-02-04T07:02:50.999Z,86.79
2023-02-04T07:05:19.554Z,87.02
2023-02-04T07:07:47.572Z,86.98
2023-02-04T07:10:17.487Z,86.89
2023-02-04T07:12:45.514Z,86.81
2023-02-04T07:15:13.784Z,86.77
2023-02-04T07:17:42.274Z,86.37
2023-02-04T07:20:12.078Z,86.46
2023-02-04T07:22:40.171Z,86.48
2023-02-04T07:25:10.275Z,86.95
2023-02-04T07:27:38.321Z,86.79
2023-02-04T07:30:07.236Z,86.38
2023-02-04T07:32:35.311Z,86.32
2023-02-04T07:35:03.370Z,86.27
2023-02-04T07:37:31.549Z,85.88
2023-02-04T07:39:59.819Z,85.45
2023-02-04T07:42:28.430Z,85.29
2023-02-04T07:45:01.238Z,85.29
2023-02-04T07:47:29.346Z,84.73
2023-02-04T07:49:57.665Z,84.96
2023-02-04T07:52:25.999Z,85.60
2023-02-04T07:54:54.093Z,84.74
2023-02-04T07:57:22.242Z,83.97
2023-02-04T07:59:50.419Z,84.12
2023-02-04T08:02:18.612Z,83.66
2023-02-04T08:04:46.968Z,83.24
2023-02-04T08:07:15.007Z,82.93
2023-02-04T08:09:43.109Z,80.34
2023-02-04T08:12:11.189Z,79.78
2023-02-04T08:14:39.258Z,78.93
2023-02-04T08:17:07.533Z,76.39
2023-02-04T08:19:35.618Z,76.61
2023-02-04T08:22:03.767Z,75.50
2023-02-04T08:24:31.853Z,74.89
2023-02-04T08:27:00.008Z,74.34
2023-02-04T08:29:28.183Z,74.31
2023-02-04T08:31:56.454Z,74.59
2023-02-04T08:34:25.040Z,74.97
2023-02-04T08:36:53.231Z,75.06
2023-02-04T08:39:21.420Z,75.63
2023-02-04T08:41:51.409Z,75.89
2023-02-04T08:44:19.502Z,76.30
2023-02-04T08:46:47.597Z,76.65
2023-02-04T08:49:15.736Z,77.04
2023-02-04T08:51:43.809Z,77.19
2023-02-04T08:54:12.098Z,77.22
2023-02-04T08:56:40.264Z,77.14
2023-02-04T08:59:08.334Z,76.98
2023-02-04T09:01:36.449Z,76.82
2023-02-04T09:04:04.587Z,75.73
2023-02-04T09:06:32.864Z,74.87
2023-02-04T09:09:01.230Z,74.33
2023-02-04T09:11:29.310Z,74.37
2023-02-04T09:13:57.623Z,74.30
2023-02-04T09:16:25.751Z,73.75
2023-02-04T09:18:54.149Z,73.89
2023-02-04T09:21:22.417Z,73.65
2023-02-04T09:23:50.813Z,73.68
2023-02-04T09:26:19.191Z,73.72
2023-02-04T09:28:48.889Z,73.80
2023-02-04T09:31:18.026Z,74.50
2023-02-04T09:33:46.364Z,74.79
2023-02-04T09:36:14.442Z,75.06
2023-02-04T09:38:42.701Z,75.21
2023-02-04T09:41:13.161Z,75.41
2023-02-04T09:43:44.282Z,75.94
2023-02-04T09:46:24.569Z,76.53
2023-02-04T09:48:52.909Z,77.47
2023-02-04T09:51:23.773Z,78.01
2023-02-04T09:53:54.408Z,78.51
2023-02-04T09:56:28.650Z,78.65
2023-02-04T09:58:56.755Z,79.36
2023-02-04T10:01:27.407Z,80.40
2023-02-04T10:04:01.348Z,81.19
2023-02-04T10:06:29.668Z,81.76
2023-02-04T10:08:57.789Z,82.32
2023-02-04T10:11:28.079Z,82.41
2023-02-04T10:13:57.047Z,82.41
2023-02-04T10:16:36.262Z,82.65
2023-02-04T10:19:07.340Z,82.69
2023-02-04T10:21:36.963Z,82.78
2023-02-04T10:24:11.872Z,82.78
2023-02-04T10:26:39.924Z,82.75
2023-02-04T10:29:15.131Z,82.31
2023-02-04T10:31:46.405Z,82.45
2023-02-04T10:34:23.732Z,82.15
2023-02-04T10:36:54.749Z,81.65
2023-02-04T10:39:25.841Z,81.74
2023-02-04T10:41:59.230Z,81.19
2023-02-04T10:44:31.890Z,80.81
2023-02-04T10:47:06.604Z,80.78
2023-02-04T10:49:34.899Z,80.68
2023-02-04T10:52:13.894Z,80.66
2023-02-04T10:54:42.337Z,81.00
2023-02-04T10:57:22.237Z,81.13
2023-02-04T10:59:53.472Z,81.52
2023-02-04T11:02:33.730Z,81.60
2023-02-04T11:05:03.069Z,81.92
2023-02-04T11:07:32.018Z,82.24
2023-02-04T11:10:00.153Z,82.95
2023-02-04T11:12:54.011Z,83.33
2023-02-04T11:15:41.041Z,83.29
2023-02-04T11:18:14.490Z,83.95
2023-02-04T11:20:42.584Z,84.52
2023-02-04T11:23:34.975Z,84.61
2023-02-04T11:26:23.030Z,84.80
2023-02-04T11:29:00.216Z,84.89
2023-02-04T11:31:41.825Z,85.07
2023-02-04T11:34:27.193Z,85.00
2023-02-04T11:36:59.853Z,84.86
2023-02-04T11:39:42.592Z,85.01
2023-02-04T11:42:24.577Z,85.17
2023-02-04T11:44:58.734Z,85.35
2023-02-04T11:47:28.286Z,85.70
2023-02-04T11:50:01.761Z,85.86
2023-02-04T11:52:30.059Z,85.71
2023-02-04T11:55:00.414Z,85.62
2023-02-04T11:57:28.678Z,85.12
2023-02-04T11:59:56.844Z,84.83
2023-02-04T12:02:28.316Z,84.01
2023-02-04T12:05:08.564Z,83.76
2023-02-04T12:07:37.045Z,83.22
2023-02-04T12:10:14.342Z,82.98
2023-02-04T12:12:51.812Z,82.71
2023-02-04T12:15:25.322Z,83.22
2023-02-04T12:18:03.512Z,83.70
2023-02-04T12:20:31.636Z,84.07
2023-02-04T12:22:59.957Z,83.92
2023-02-04T12:25:28.476Z,83.92
2023-02-04T12:27:57.286Z,83.99
2023-02-04T12:30:26.914Z,84.59
2023-02-04T12:32:55.008Z,88.47
2023-02-04T12:35:23.226Z,85.97
2023-02-04T12:37:51.454Z,85.12
2023-02-04T12:40:21.477Z,85.42
2023-02-04T12:42:49.969Z,85.01
2023-02-04T12:45:19.205Z,84.37
2023-02-04T12:47:47.621Z,84.44
2023-02-04T12:50:22.851Z,84.26
2023-02-04T12:52:53.094Z,84.15
2023-02-04T12:55:22.488Z,84.13
2023-02-04T12:57:51.378Z,84.31
2023-02-04T13:00:21.206Z,84.86
2023-02-04T13:02:49.377Z,85.30
2023-02-04T13:05:18.157Z,85.94
2023-02-04T13:07:46.246Z,86.20
2023-02-04T13:10:14.919Z,86.37
2023-02-04T13:12:42.972Z,87.16
2023-02-04T13:15:11.293Z,87.40
2023-02-04T13:17:39.400Z,87.23
2023-02-04T13:20:08.746Z,87.39
2023-02-04T13:22:36.814Z,87.92
2023-02-04T13:25:06.129Z,88.06
2023-02-04T13:27:34.387Z,87.48
2023-02-04T13:30:02.553Z,87.06
2023-02-04T13:32:31.030Z,86.54
2023-02-04T13:34:59.509Z,86.15
2023-02-04T13:37:27.690Z,86.53
2023-02-04T13:39:55.716Z,86.61
2023-02-04T13:42:24.342Z,86.08
2023-02-04T13:44:52.620Z,85.29
2023-02-04T13:47:20.794Z,89.79
2023-02-04T13:49:48.966Z,86.89
2023-02-04T13:52:18.542Z,86.53
2023-02-04T13:54:46.948Z,86.81
2023-02-04T13:57:15.021Z,86.92
2023-02-04T13:59:43.032Z,86.65
2023-02-04T14:02:11.210Z,86.46
2023-02-04T14:04:39.288Z,86.76
2023-02-04T14:07:07.584Z,85.55
2023-02-04T14:09:36.049Z,84.88
2023-02-04T14:12:04.180Z,83.80
2023-02-04T14:14:32.149Z,83.60
2023-02-04T14:17:00.368Z,84.88
2023-02-04T14:19:28.773Z,84.70
2023-02-04T14:21:57.013Z,84.21
2023-02-04T14:24:25.335Z,84.12
2023-02-04T14:26:53.492Z,84.18
2023-02-04T14:29:21.998Z,84.42
2023-02-04T14:31:50.260Z,84.60
2023-02-04T14:34:18.355Z,85.36
2023-02-04T14:36:46.509Z,85.07
2023-02-04T14:39:14.783Z,84.91
2023-02-04T14:41:42.960Z,85.07
2023-02-04T14:44:11.129Z,84.99
2023-02-04T14:46:41.427Z,86.33
2023-02-04T14:49:09.529Z,86.33
2023-02-04T14:51:37.598Z,87.31
2023-02-04T14:54:05.970Z,87.67
2023-02-04T14:56:34.157Z,87.76
2023-02-04T14:59:02.355Z,88.41
2023-02-04T15:01:31.308Z,88.39
2023-02-04T15:03:59.700Z,88.28
2023-02-04T15:06:27.972Z,88.06
2023-02-04T15:08:57.380Z,87.96
2023-02-04T15:11:25.364Z,88.03
2023-02-04T15:13:53.416Z,87.23
2023-02-04T15:16:21.416Z,86.85
2023-02-04T15:18:49.759Z,87.07
2023-02-04T15:21:17.997Z,87.49
2023-02-04T15:23:47.549Z,87.89
2023-02-04T15:26:15.690Z,87.43
2023-02-04T15:28:43.688Z,86.83
2023-02-04T15:31:12.516Z,86.38
2023-02-04T15:33:40.978Z,87.16
2023-02-04T15:36:09.322Z,86.59
2023-02-04T15:38:37.533Z,86.18
2023-02-04T15:41:05.673Z,86.27
2023-02-04T16:59:08.138Z,77.64
2023-02-04T17:01:36.834Z,77.83
2023-02-04T17:04:05.354Z,77.39
2023-02-04T17:06:35.823Z,76.63
2023-02-04T17:09:04.057Z,75.36
2023-02-04T17:11:32.914Z,75.40
2023-02-04T17:14:10.071Z,75.41
2023-02-04T17:16:38.356Z,75.83
2023-02-04T17:19:06.381Z,74.99
2023-02-04T17:21:34.449Z,74.58
2023-02-04T17:24:05.898Z,74.53
2023-02-04T17:26:39.469Z,75.46
2023-02-04T17:29:09.774Z,75.25
2023-02-04T17:31:38.521Z,74.86
2023-02-04T17:34:06.837Z,74.70
2023-02-04T17:36:35.160Z,74.87
2023-02-04T17:39:03.851Z,75.62
2023-02-04T17:41:32.415Z,75.65
2023-02-04T17:44:00.833Z,76.49
2023-02-04T17:46:29.546Z,76.81
2023-02-04T17:48:59.127Z,77.16
2023-02-04T17:51:27.176Z,77.21
2023-02-04T17:53:55.174Z,77.28
2023-02-04T17:56:25.267Z,76.97
2023-02-04T17:58:56.111Z,76.25
2023-02-04T18:01:25.388Z,76.18
2023-02-04T18:03:53.774Z,76.27
2023-02-04T18:06:29.285Z,76.62
2023-02-04T18:09:02.463Z,76.57
2023-02-04T18:11:36.380Z,77.17
2023-02-04T18:14:27.468Z,77.24
2023-02-04T18:16:58.686Z,77.48
2023-02-04T18:19:30.296Z,77.04
2023-02-04T18:21:59.533Z,76.94
2023-02-04T18:24:36.166Z,76.82
2023-02-04T18:27:19.739Z,77.32
2023-02-04T18:29:51.063Z,76.51
2023-02-04T18:32:34.933Z,76.49
2023-02-04T18:35:25.412Z,76.92
2023-02-04T18:37:53.565Z,76.18
2023-02-04T18:40:24.746Z,76.05
2023-02-04T18:43:24.856Z,76.68
2023-02-04T18:45:53.830Z,76.58
2023-02-04T18:48:22.554Z,75.56
2023-02-04T18:50:53.673Z,76.27
2023-02-04T18:53:27.366Z,76.42
2023-02-04T18:56:00.608Z,76.18
2023-02-04T18:58:35.449Z,75.32
2023-02-04T19:01:16.906Z,74.88
2023-02-04T19:04:03.994Z,75.27
2023-02-04T19:06:38.273Z,75.69
2023-02-04T19:09:12.579Z,75.89
2023-02-04T19:11:51.521Z,75.54
2023-02-04T19:14:44.453Z,75.66
2023-02-04T19:17:30.097Z,74.72
2023-02-04T19:20:01.810Z,74.82
2023-02-04T19:22:42.829Z,75.27
2023-02-04T19:25:33.530Z,75.51
2023-02-04T19:28:14.189Z,75.58
2023-02-04T19:44:14.042Z,73.18
2023-02-04T19:46:43.854Z,72.56
2023-02-04T19:49:24.568Z,72.69
2023-02-04T19:51:58.306Z,72.74
2023-02-04T19:54:38.674Z,72.75
2023-02-04T19:57:24.353Z,73.00
2023-02-04T19:59:56.823Z,72.98
2023-02-04T20:02:35.810Z,73.08
2023-02-04T20:05:18.051Z,73.39
2023-02-04T20:07:46.370Z,73.62
2023-02-04T20:10:24.853Z,73.79
2023-02-04T20:13:00.390Z,73.97
2023-02-04T20:15:28.431Z,73.84
2023-02-04T20:17:58.449Z,74.02
2023-02-04T20:20:32.634Z,74.04
2023-02-04T20:23:02.866Z,74.29
2023-02-04T20:25:37.342Z,74.57
2023-02-04T20:28:19.841Z,74.74
2023-02-04T20:30:52.325Z,74.81
2023-02-04T20:33:28.599Z,75.32
2023-02-04T20:36:25.641Z,75.47
2023-02-04T20:39:20.390Z,75.95
2023-02-04T20:41:48.560Z,76.25
2023-02-04T20:44:29.272Z,76.63
2023-02-04T20:47:11.551Z,76.84
2023-02-04T20:49:41.489Z,77.25
2023-02-04T20:52:41.628Z,77.30
2023-02-04T20:55:31.016Z,77.65
2023-02-04T20:58:09.016Z,77.57
2023-02-04T21:00:39.618Z,77.53
2023-02-04T21:03:24.729Z,77.49
2023-02-04T21:05:54.597Z,77.65
2023-02-04T21:08:35.555Z,77.56
2023-02-04T21:11:04.044Z,77.73
2023-02-04T21:13:32.736Z,77.88
2023-02-04T21:16:01.198Z,78.30
2023-02-04T21:18:30.311Z,78.48
2023-02-04T21:20:58.492Z,78.55
2023-02-04T21:23:26.859Z,78.64
2023-02-04T21:25:55.137Z,79.00
2023-02-04T21:28:23.309Z,79.52
2023-02-04T21:30:51.705Z,80.03
2023-02-04T21:33:19.961Z,79.87
2023-02-04T21:35:48.141Z,79.86
2023-02-04T21:38:16.400Z,79.78
2023-02-04T21:40:44.518Z,79.93
2023-02-04T21:43:12.669Z,79.89
2023-02-04T21:45:41.036Z,79.92
2023-02-04T21:48:09.408Z,79.90
2023-02-04T21:50:41.001Z,79.81
2023-02-04T21:53:09.957Z,80.05
2023-02-04T21:55:38.733Z,80.05
2023-02-04T21:58:07.460Z,80.03
2023-02-04T22:00:35.812Z,79.55
2023-02-04T22:03:04.085Z,79.33
2023-02-04T22:05:32.827Z,79.07
2023-02-04T22:08:01.353Z,78.95
2023-02-04T22:10:29.835Z,78.42
2023-02-04T22:12:57.928Z,78.47
2023-02-04T22:15:26.180Z,78.05
2023-02-04T22:17:55.841Z,77.98
2023-02-04T22:20:25.705Z,77.70
2023-02-04T22:22:54.212Z,77.47
2023-02-04T22:25:22.570Z,77.69
2023-02-04T22:27:50.770Z,77.35
2023-02-04T22:30:20.043Z,77.23
2023-02-04T22:32:48.525Z,77.19
2023-02-04T22:35:17.660Z,77.10
2023-02-04T22:37:45.786Z,77.08
2023-02-04T22:40:14.181Z,77.01
2023-02-04T22:42:42.340Z,76.92
2023-02-04T22:45:10.615Z,76.93
2023-02-04T22:47:38.666Z,76.93
2023-02-04T22:50:08.000Z,77.10
2023-02-04T22:52:36.481Z,76.67
2023-02-04T22:55:05.284Z,76.43
2023-02-04T22:57:33.330Z,76.61
2023-02-04T23:00:01.705Z,77.09
2023-02-04T23:02:30.191Z,76.18
2023-02-04T23:04:58.360Z,75.56
2023-02-04T23:07:26.734Z,75.26
2023-02-04T23:09:54.699Z,75.23
2023-02-04T23:12:22.773Z,75.31
2023-02-04T23:14:51.047Z,75.82
2023-02-04T23:17:19.320Z,75.32
2023-02-04T23:19:47.547Z,75.10
2023-02-04T23:22:16.628Z,74.18
2023-02-04T23:24:45.052Z,74.43
2023-02-04T23:27:13.256Z,74.28
2023-02-04T23:29:41.357Z,73.96
2023-02-04T23:32:09.520Z,74.41
2023-02-04T23:34:37.969Z,74.44
2023-02-04T23:37:06.506Z,74.73
2023-02-04T23:39:34.726Z,74.63
2023-02-04T23:42:03.002Z,74.52
2023-02-04T23:44:31.183Z,74.51
2023-02-04T23:46:59.558Z,74.29
2023-02-04T23:49:27.568Z,74.92
2023-02-04T23:51:55.639Z,74.67
2023-02-04T23:54:23.763Z,75.16
2023-02-04T23:56:52.660Z,75.73
2023-02-04T23:59:20.672Z,75.77
